Time;durP1;ratioP1;P1;durP2;ratioP2;P2;SDS_P1;SDS_P2;PMS_P1;PMS_P2;Temp;Humidity;BMP_temperature;BMP_pressure;BME280_temperature;BME280_humidity;BME280_pressure;Samples;Min_cycle;Max_cycle;Signal;HPM_P1;HPM_P2
2024/01/10 00:01:05;;;;;;;18.95;11.20;;;;;;;;;;5031559;28;20202;-76
2024/01/10 00:03:33;;;;;;;14.52;10.35;;;;;;;;;;5026024;28;20202;-76
2024/01/10 00:06:00;;;;;;;19.67;11.93;;;;;;;;;;5036120;28;20202;-76
2024/01/10 00:08:28;;;;;;;19.58;11.80;;;;;;;;;;5030545;28;20309;-76
2024/01/10 00:10:55;;;;;;;16.42;9.48;;;;;;;;;;5031364;28;20825;-76
2024/01/10 00:13:22;;;;;;;16.13;10.20;;;;;;;;;;5030849;28;20289;-76
2024/01/10 00:15:51;;;;;;;18.90;10.02;;;;;;;;;;5030618;28;20669;-76
2024/01/10 00:18:19;;;;;;;18.00;10.43;;;;;;;;;;5030488;28;20599;-74
2024/01/10 00:20:47;;;;;;;17.95;10.68;;;;;;;;;;5030371;28;20213;-76
2024/01/10 00:23:14;;;;;;;19.90;11.70;;;;;;;;;;5031229;28;20248;-76
2024/01/10 00:25:42;;;;;;;20.67;11.32;;;;;;;;;;5031302;28;20202;-75
2024/01/10 00:28:09;;;;;;;20.45;10.75;;;;;;;;;;5030770;28;20232;-76
2024/01/10 00:30:37;;;;;;;16.95;11.15;;;;;;;;;;5029426;28;20220;-76
2024/01/10 00:33:06;;;;;;;22.42;11.90;;;;;;;;;;5030850;28;20234;-76
2024/01/10 00:35:33;;;;;;;21.77;12.80;;;;;;;;;;5031296;28;20236;-76
2024/01/10 00:38:01;;;;;;;23.42;13.15;;;;;;;;;;5030885;28;20686;-76
2024/01/10 00:40:28;;;;;;;18.02;10.93;;;;;;;;;;5030455;28;20230;-76
2024/01/10 00:42:56;;;;;;;18.17;10.38;;;;;;;;;;5030142;28;20298;-76
2024/01/10 00:45:24;;;;;;;17.63;12.02;;;;;;;;;;5030341;28;20198;-76
2024/01/10 00:47:51;;;;;;;18.73;11.25;;;;;;;;;;5030824;28;20235;-75
2024/01/10 00:50:20;;;;;;;20.95;13.00;;;;;;;;;;5030532;28;20656;-76
2024/01/10 00:52:48;;;;;;;18.27;12.20;;;;;;;;;;5028750;28;20202;-76
2024/01/10 00:55:16;;;;;;;15.93;10.85;;;;;;;;;;5030968;28;20232;-76
2024/01/10 00:57:43;;;;;;;21.33;12.52;;;;;;;;;;5030234;28;20297;-76
2024/01/10 01:00:13;;;;;;;21.42;13.13;;;;;;;;;;5030189;28;20697;-76
2024/01/10 01:02:41;;;;;;;23.80;12.20;;;;;;;;;;5031233;28;20207;-76
2024/01/10 01:05:09;;;;;;;24.80;13.38;;;;;;;;;;5030616;28;20652;-75
2024/01/10 01:07:38;;;;;;;20.73;12.23;;;;;;;;;;5029344;28;20233;-75
2024/01/10 01:10:08;;;;;;;18.88;13.65;;;;;;;;;;5030364;28;20203;-76
2024/01/10 01:12:36;;;;;;;26.73;14.68;;;;;;;;;;5030450;28;20312;-76
2024/01/10 01:15:03;;;;;;;21.00;12.05;;;;;;;;;;5032275;28;20222;-76
2024/01/10 01:17:31;;;;;;;24.23;14.18;;;;;;;;;;5033714;28;20695;-75
2024/01/10 01:19:59;;;;;;;26.88;13.75;;;;;;;;;;5033227;28;20205;-76
2024/01/10 01:22:26;;;;;;;21.50;12.57;;;;;;;;;;5033925;28;20210;-76
2024/01/10 01:24:56;;;;;;;25.63;14.90;;;;;;;;;;5033854;28;20644;-76
2024/01/10 01:27:23;;;;;;;21.45;13.02;;;;;;;;;;5031961;28;20254;-76
2024/01/10 01:29:51;;;;;;;24.92;13.15;;;;;;;;;;5033949;28;20209;-76
2024/01/10 01:32:18;;;;;;;26.35;14.13;;;;;;;;;;5033663;28;20623;-76
2024/01/10 01:34:46;;;;;;;19.38;12.55;;;;;;;;;;5033483;28;20232;-76
2024/01/10 01:37:13;;;;;;;23.77;12.85;;;;;;;;;;5033344;28;20226;-76
2024/01/10 01:39:40;;;;;;;25.35;15.40;;;;;;;;;;5033687;28;20836;-76
2024/01/10 01:42:09;;;;;;;24.98;14.85;;;;;;;;;;5033775;28;20201;-76
2024/01/10 01:44:37;;;;;;;26.83;14.95;;;;;;;;;;5032579;28;20203;-75
2024/01/10 01:47:05;;;;;;;24.02;13.63;;;;;;;;;;5033332;28;20222;-76
2024/01/10 01:49:33;;;;;;;21.63;12.90;;;;;;;;;;5033259;28;20264;-76
2024/01/10 01:52:01;;;;;;;32.50;14.88;;;;;;;;;;5035313;28;20639;-76
2024/01/10 01:54:28;;;;;;;23.33;14.00;;;;;;;;;;5033275;28;20672;-76
2024/01/10 01:56:57;;;;;;;20.70;15.68;;;;;;;;;;5033476;28;20227;-76
2024/01/10 01:59:26;;;;;;;25.70;15.20;;;;;;;;;;5031803;28;20207;-76
2024/01/10 02:01:55;;;;;;;27.33;16.33;;;;;;;;;;5033033;28;20206;-75
2024/01/10 02:04:23;;;;;;;25.13;13.80;;;;;;;;;;5031479;28;20206;-76
2024/01/10 02:06:50;;;;;;;24.00;14.52;;;;;;;;;;5028622;28;20226;-76
2024/01/10 02:09:17;;;;;;;26.83;14.63;;;;;;;;;;5032255;28;20210;-76
2024/01/10 02:11:45;;;;;;;26.48;13.50;;;;;;;;;;5032859;28;20214;-76
2024/01/10 02:14:12;;;;;;;22.52;13.38;;;;;;;;;;5033067;28;20217;-75
2024/01/10 02:16:41;;;;;;;22.67;13.32;;;;;;;;;;5032799;28;20244;-75
2024/01/10 02:19:22;;;;;;;24.85;16.00;;;;;;;;;;5032428;28;20202;-76
2024/01/10 02:21:50;;;;;;;22.15;14.75;;;;;;;;;;5028905;28;20205;-75
2024/01/10 02:24:17;;;;;;;30.10;13.65;;;;;;;;;;5033039;28;20489;-75
2024/01/10 02:26:46;;;;;;;22.50;14.02;;;;;;;;;;5026434;28;20205;-76
2024/01/10 02:29:14;;;;;;;31.05;14.90;;;;;;;;;;5031732;28;20208;-76
2024/01/10 02:31:41;;;;;;;25.35;15.25;;;;;;;;;;5032723;28;20202;-76
2024/01/10 02:34:09;;;;;;;24.33;14.07;;;;;;;;;;5032794;28;20239;-76
2024/01/10 02:36:36;;;;;;;29.95;16.65;;;;;;;;;;5031460;28;20341;-76
2024/01/10 02:39:04;;;;;;;22.90;13.52;;;;;;;;;;5032118;28;20206;-75
2024/01/10 02:41:31;;;;;;;26.00;16.42;;;;;;;;;;5032696;28;20742;-76
2024/01/10 02:44:00;;;;;;;24.63;14.40;;;;;;;;;;5032523;28;20579;-76
2024/01/10 02:46:28;;;;;;;27.27;15.38;;;;;;;;;;5032190;28;20209;-76
2024/01/10 02:48:56;;;;;;;23.13;15.40;;;;;;;;;;5032361;28;20793;-76
2024/01/10 02:51:24;;;;;;;26.45;15.52;;;;;;;;;;5030911;28;20206;-78
2024/01/10 02:53:52;;;;;;;26.08;17.38;;;;;;;;;;5032293;28;20640;-75
2024/01/10 02:56:19;;;;;;;32.70;16.30;;;;;;;;;;5031824;28;20229;-76
2024/01/10 02:58:47;;;;;;;32.67;16.00;;;;;;;;;;5030591;28;20693;-76
2024/01/10 03:01:17;;;;;;;24.70;17.25;;;;;;;;;;5032624;28;20202;-76
2024/01/10 03:03:44;;;;;;;26.48;16.80;;;;;;;;;;5031768;28;20208;-76
2024/01/10 03:06:11;;;;;;;28.05;16.02;;;;;;;;;;5032066;28;20208;-76
2024/01/10 03:08:39;;;;;;;29.08;15.90;;;;;;;;;;5032119;28;20591;-76
2024/01/10 03:11:06;;;;;;;28.45;16.33;;;;;;;;;;5031699;28;20680;-76
2024/01/10 03:13:34;;;;;;;29.73;16.42;;;;;;;;;;5031349;28;20216;-76
2024/01/10 03:16:01;;;;;;;30.63;16.88;;;;;;;;;;5031786;28;20230;-76
2024/01/10 03:18:30;;;;;;;31.08;17.35;;;;;;;;;;5031365;28;20234;-76
2024/01/10 03:20:56;;;;;;;25.08;16.08;;;;;;;;;;5031748;28;20253;-76
2024/01/10 03:23:24;;;;;;;27.52;16.42;;;;;;;;;;5029598;28;20293;-76
2024/01/10 03:25:51;;;;;;;27.35;14.90;;;;;;;;;;5031740;28;20202;-76
2024/01/10 03:28:19;;;;;;;20.48;14.52;;;;;;;;;;5031094;28;20613;-76
2024/01/10 03:30:46;;;;;;;20.20;14.15;;;;;;;;;;5026557;28;20210;-76
2024/01/10 03:33:15;;;;;;;21.75;12.93;;;;;;;;;;5031914;28;20213;-76
2024/01/10 03:35:45;;;;;;;30.58;16.15;;;;;;;;;;5031682;28;20222;-76
2024/01/10 03:38:12;;;;;;;25.83;15.25;;;;;;;;;;5031141;28;20229;-76
2024/01/10 03:40:40;;;;;;;30.13;16.95;;;;;;;;;;5031570;28;20218;-76
2024/01/10 03:43:09;;;;;;;26.45;15.50;;;;;;;;;;5031041;28;20204;-76
2024/01/10 03:45:37;;;;;;;24.35;15.55;;;;;;;;;;5031451;28;20202;-76
2024/01/10 03:48:05;;;;;;;25.08;16.25;;;;;;;;;;5031190;28;20600;-76
2024/01/10 03:50:33;;;;;;;25.48;15.90;;;;;;;;;;5030798;28;20294;-75
2024/01/10 03:53:02;;;;;;;28.73;17.30;;;;;;;;;;5032961;28;20220;-76
2024/01/10 03:55:29;;;;;;;32.60;18.10;;;;;;;;;;5031155;28;20601;-76
2024/01/10 03:57:57;;;;;;;26.17;15.80;;;;;;;;;;5030939;28;20272;-76
2024/01/10 04:00:25;;;;;;;28.90;15.80;;;;;;;;;;5029899;28;20212;-76
2024/01/10 04:02:53;;;;;;;31.27;17.40;;;;;;;;;;5026102;28;20225;-76
2024/01/10 04:05:20;;;;;;;34.50;17.90;;;;;;;;;;5030761;28;20222;-76
2024/01/10 04:07:48;;;;;;;29.77;17.75;;;;;;;;;;5031074;28;20233;-76
2024/01/10 04:10:17;;;;;;;30.90;18.45;;;;;;;;;;5030559;28;20297;-75
2024/01/10 04:12:44;;;;;;;32.42;17.38;;;;;;;;;;5030737;28;20217;-76
2024/01/10 04:15:13;;;;;;;26.42;16.67;;;;;;;;;;5031026;28;20216;-76
2024/01/10 04:17:40;;;;;;;32.63;19.83;;;;;;;;;;5031133;28;20248;-76
2024/01/10 04:20:09;;;;;;;31.70;17.40;;;;;;;;;;5030523;28;20214;-75
2024/01/10 04:22:37;;;;;;;32.85;16.85;;;;;;;;;;5031103;28;20221;-76
2024/01/10 04:25:08;;;;;;;24.08;13.50;;;;;;;;;;5031658;28;20228;-76
2024/01/10 04:27:37;;;;;;;36.78;17.88;;;;;;;;;;5031114;28;20620;-76
2024/01/10 04:30:06;;;;;;;31.08;17.20;;;;;;;;;;5030472;28;20210;-76
2024/01/10 04:32:34;;;;;;;32.47;17.92;;;;;;;;;;5030575;28;20305;-75
2024/01/10 04:35:02;;;;;;;33.40;17.73;;;;;;;;;;5030936;28;20221;-76
2024/01/10 04:37:29;;;;;;;35.05;19.20;;;;;;;;;;5030259;28;20316;-76
2024/01/10 04:39:57;;;;;;;25.02;17.25;;;;;;;;;;5030507;28;20693;-76
2024/01/10 04:42:24;;;;;;;27.75;16.27;;;;;;;;;;5027299;28;20206;-76
2024/01/10 04:44:53;;;;;;;32.20;16.90;;;;;;;;;;5030496;28;20678;-75
2024/01/10 04:47:21;;;;;;;28.90;17.33;;;;;;;;;;5030412;28;20717;-76
2024/01/10 04:49:48;;;;;;;31.70;17.25;;;;;;;;;;5031999;28;20762;-76
2024/01/10 04:52:16;;;;;;;32.30;18.58;;;;;;;;;;5034547;28;20213;-76
2024/01/10 04:54:43;;;;;;;25.92;15.30;;;;;;;;;;5033963;28;20205;-76
2024/01/10 04:57:11;;;;;;;28.40;16.52;;;;;;;;;;5033886;28;20241;-76
2024/01/10 04:59:38;;;;;;;30.08;17.42;;;;;;;;;;5033015;28;20207;-76
2024/01/10 05:02:07;;;;;;;27.08;17.48;;;;;;;;;;5034040;28;20208;-77
2024/01/10 05:04:34;;;;;;;27.33;16.73;;;;;;;;;;5034320;28;20655;-77
2024/01/10 05:07:02;;;;;;;30.15;18.27;;;;;;;;;;5028358;28;20225;-76
2024/01/10 05:09:29;;;;;;;30.42;16.75;;;;;;;;;;5033380;28;20583;-77
2024/01/10 05:11:57;;;;;;;19.85;12.65;;;;;;;;;;5034829;28;20206;-76
2024/01/10 05:14:24;;;;;;;22.65;15.68;;;;;;;;;;5033466;28;20612;-76
2024/01/10 05:16:53;;;;;;;28.80;16.15;;;;;;;;;;5033142;28;20234;-76
2024/01/10 05:19:22;;;;;;;28.83;16.30;;;;;;;;;;5033539;28;20241;-76
2024/01/10 05:21:49;;;;;;;28.35;16.13;;;;;;;;;;5033923;28;20212;-76
2024/01/10 05:24:18;;;;;;;23.52;13.55;;;;;;;;;;5037777;28;20233;-77
2024/01/10 05:26:45;;;;;;;18.27;11.55;;;;;;;;;;5038031;28;20245;-77
2024/01/10 05:29:13;;;;;;;28.95;14.98;;;;;;;;;;5036787;28;20218;-76
2024/01/10 05:31:40;;;;;;;18.52;12.80;;;;;;;;;;5038375;28;20612;-76
2024/01/10 05:34:08;;;;;;;29.58;16.42;;;;;;;;;;5038074;28;20707;-76
2024/01/10 05:36:37;;;;;;;22.77;16.00;;;;;;;;;;5037044;28;20199;-77
2024/01/10 05:39:04;;;;;;;26.38;15.65;;;;;;;;;;5037729;28;20199;-77
2024/01/10 05:41:32;;;;;;;30.77;16.63;;;;;;;;;;5037804;28;20578;-77
2024/01/10 05:43:59;;;;;;;30.75;16.95;;;;;;;;;;5037877;28;20198;-77
2024/01/10 05:46:28;;;;;;;21.60;14.82;;;;;;;;;;5036401;28;20285;-77
2024/01/10 05:48:55;;;;;;;18.27;12.45;;;;;;;;;;5038318;28;20238;-76
2024/01/10 05:51:22;;;;;;;23.35;14.10;;;;;;;;;;5037986;28;20209;-77
2024/01/10 05:53:51;;;;;;;27.60;15.85;;;;;;;;;;5037983;28;20293;-77
2024/01/10 05:56:19;;;;;;;33.28;18.13;;;;;;;;;;5038300;28;20203;-76
2024/01/10 05:58:46;;;;;;;26.92;16.73;;;;;;;;;;5032348;28;20231;-77
2024/01/10 06:01:14;;;;;;;33.60;17.42;;;;;;;;;;5037738;28;20580;-77
2024/01/10 06:03:41;;;;;;;30.52;16.45;;;;;;;;;;5039446;28;20202;-76
2024/01/10 06:06:09;;;;;;;31.17;16.70;;;;;;;;;;5037469;28;20202;-77
2024/01/10 06:08:36;;;;;;;31.17;17.35;;;;;;;;;;5033221;28;20253;-77
2024/01/10 06:11:08;;;;;;;28.60;18.55;;;;;;;;;;5034594;28;20210;-76
2024/01/10 06:13:36;;;;;;;29.45;18.05;;;;;;;;;;5035068;28;20198;-76
2024/01/10 06:16:04;;;;;;;26.92;15.65;;;;;;;;;;5035073;28;20209;-77
2024/01/10 06:18:31;;;;;;;28.15;17.45;;;;;;;;;;5033325;28;20530;-76
2024/01/10 06:20:59;;;;;;;27.65;17.13;;;;;;;;;;5034177;28;20655;-77
2024/01/10 06:23:26;;;;;;;33.20;16.23;;;;;;;;;;5033660;28;20209;-76
2024/01/10 06:25:54;;;;;;;27.55;17.60;;;;;;;;;;5034154;28;20199;-77
2024/01/10 06:28:24;;;;;;;33.78;18.30;;;;;;;;;;5033963;28;20226;-77
2024/01/10 06:30:52;;;;;;;27.17;15.93;;;;;;;;;;5034777;28;20233;-77
2024/01/10 06:33:20;;;;;;;31.42;16.73;;;;;;;;;;5033772;28;20879;-77
2024/01/10 06:35:47;;;;;;;31.25;18.52;;;;;;;;;;5034029;28;20758;-77
2024/01/10 06:38:16;;;;;;;29.58;16.88;;;;;;;;;;5034349;28;20240;-77
2024/01/10 06:40:44;;;;;;;33.42;18.52;;;;;;;;;;5034061;28;20647;-77
2024/01/10 06:43:12;;;;;;;32.53;19.38;;;;;;;;;;5034627;28;20582;-76
2024/01/10 06:45:42;;;;;;;33.88;18.40;;;;;;;;;;5034621;28;20206;-77
2024/01/10 06:48:09;;;;;;;32.22;18.02;;;;;;;;;;5034722;28;20226;-77
2024/01/10 06:50:38;;;;;;;36.38;19.02;;;;;;;;;;5032152;28;20212;-76
2024/01/10 06:53:05;;;;;;;34.28;16.92;;;;;;;;;;5034322;28;20202;-77
2024/01/10 06:55:33;;;;;;;26.73;16.63;;;;;;;;;;5034133;28;20655;-77
2024/01/10 06:58:00;;;;;;;35.53;18.60;;;;;;;;;;5028559;28;20237;-77
2024/01/10 07:00:28;;;;;;;29.45;16.75;;;;;;;;;;5033121;28;20208;-77
2024/01/10 07:02:57;;;;;;;31.65;18.90;;;;;;;;;;5034336;28;20285;-77
2024/01/10 07:05:24;;;;;;;33.88;18.13;;;;;;;;;;5045543;28;20199;-76
2024/01/10 07:07:52;;;;;;;31.00;18.73;;;;;;;;;;5033952;28;20633;-76
2024/01/10 07:10:19;;;;;;;33.47;18.08;;;;;;;;;;5034009;28;20297;-77
2024/01/10 07:12:47;;;;;;;35.30;16.88;;;;;;;;;;5027623;28;20217;-77
2024/01/10 07:15:14;;;;;;;29.33;17.55;;;;;;;;;;5033786;28;20209;-77
2024/01/10 07:17:42;;;;;;;29.90;16.63;;;;;;;;;;5033646;28;20222;-76
2024/01/10 07:20:12;;;;;;;29.52;17.83;;;;;;;;;;5032825;28;20244;-77
2024/01/10 07:22:41;;;;;;;30.90;16.75;;;;;;;;;;5033034;28;20721;-77
2024/01/10 07:25:09;;;;;;;26.98;16.67;;;;;;;;;;5033596;28;20289;-76
2024/01/10 07:27:37;;;;;;;30.77;16.58;;;;;;;;;;5031828;28;20229;-77
2024/01/10 07:30:13;;;;;;;27.30;15.07;;;;;;;;;;5033126;28;20213;-76
2024/01/10 07:32:41;;;;;;;26.30;17.35;;;;;;;;;;5033664;28;20201;-76
2024/01/10 07:35:11;;;;;;;33.28;17.48;;;;;;;;;;5032931;28;20198;-77
2024/01/10 07:37:39;;;;;;;28.75;16.27;;;;;;;;;;5033111;28;20252;-77
2024/01/10 07:40:08;;;;;;;31.27;16.55;;;;;;;;;;5033271;28;20199;-77
2024/01/10 07:42:36;;;;;;;34.75;18.73;;;;;;;;;;5033846;28;20616;-77
2024/01/10 07:45:04;;;;;;;27.90;17.08;;;;;;;;;;5033511;28;20209;-77
2024/01/10 07:47:32;;;;;;;30.98;18.05;;;;;;;;;;5032786;28;20650;-77
2024/01/10 07:49:59;;;;;;;30.70;18.02;;;;;;;;;;5033048;28;20635;-77
2024/01/10 07:52:28;;;;;;;28.50;16.77;;;;;;;;;;5032935;28;20206;-77
2024/01/10 07:54:57;;;;;;;27.85;18.23;;;;;;;;;;5032774;28;20225;-77
2024/01/10 07:57:24;;;;;;;29.98;17.27;;;;;;;;;;5032047;28;20272;-77
2024/01/10 07:59:51;;;;;;;30.20;18.05;;;;;;;;;;5028484;28;20253;-77
2024/01/10 08:02:19;;;;;;;29.50;18.48;;;;;;;;;;5033281;28;20576;-77
2024/01/10 08:04:46;;;;;;;34.20;17.83;;;;;;;;;;5021733;28;20229;-77
2024/01/10 08:07:14;;;;;;;32.78;18.48;;;;;;;;;;5032583;28;20228;-77
2024/01/10 08:09:43;;;;;;;31.05;17.48;;;;;;;;;;5032798;28;20670;-76
2024/01/10 08:12:11;;;;;;;31.15;19.10;;;;;;;;;;5033122;28;20722;-77
2024/01/10 08:14:39;;;;;;;29.25;17.45;;;;;;;;;;5033543;28;20198;-76
2024/01/10 08:17:06;;;;;;;30.15;19.05;;;;;;;;;;5033372;28;20700;-77
2024/01/10 08:19:35;;;;;;;33.55;18.25;;;;;;;;;;5032814;28;20229;-77
2024/01/10 08:22:04;;;;;;;32.53;18.23;;;;;;;;;;5034073;28;20301;-77
2024/01/10 08:24:31;;;;;;;30.23;18.08;;;;;;;;;;5036450;28;20647;-77
2024/01/10 08:27:00;;;;;;;31.35;16.23;;;;;;;;;;5037773;28;20222;-77
2024/01/10 08:29:31;;;;;;;27.85;17.75;;;;;;;;;;5037208;28;20270;-77
2024/01/10 08:31:59;;;;;;;25.73;15.77;;;;;;;;;;5039126;28;20199;-77
2024/01/10 08:34:26;;;;;;;30.45;16.20;;;;;;;;;;5037951;28;20264;-77
2024/01/10 08:36:54;;;;;;;32.05;17.45;;;;;;;;;;5037861;28;20226;-77
2024/01/10 08:39:21;;;;;;;33.00;18.10;;;;;;;;;;5039742;28;20297;-77
2024/01/10 08:41:49;;;;;;;34.47;17.75;;;;;;;;;;5043833;28;20214;-78
2024/01/10 08:44:18;;;;;;;29.73;17.52;;;;;;;;;;5041168;28;20587;-77
2024/01/10 08:46:46;;;;;;;30.40;17.98;;;;;;;;;;5041195;28;20210;-77
2024/01/10 08:49:14;;;;;;;35.85;19.42;;;;;;;;;;5040827;28;20240;-77
2024/01/10 08:51:43;;;;;;;34.78;18.77;;;;;;;;;;5041053;28;20218;-78
2024/01/10 08:54:12;;;;;;;30.05;16.48;;;;;;;;;;5041604;28;20233;-78
2024/01/10 08:56:40;;;;;;;25.77;16.67;;;;;;;;;;5040437;28;20203;-78
2024/01/10 08:59:07;;;;;;;31.35;18.40;;;;;;;;;;5041281;28;20232;-78
2024/01/10 09:01:38;;;;;;;27.00;18.13;;;;;;;;;;5041623;28;20230;-78
2024/01/10 09:04:06;;;;;;;28.88;18.10;;;;;;;;;;5048284;28;20232;-77
2024/01/10 09:06:34;;;;;;;25.95;16.48;;;;;;;;;;5042399;28;20386;-78
2024/01/10 09:09:02;;;;;;;32.20;19.30;;;;;;;;;;5042468;28;20252;-77
2024/01/10 09:11:30;;;;;;;28.50;17.33;;;;;;;;;;5041494;28;20620;-77
2024/01/10 09:13:57;;;;;;;28.63;19.38;;;;;;;;;;5042257;28;20228;-78
2024/01/10 09:16:24;;;;;;;33.55;18.90;;;;;;;;;;5042813;28;20206;-77
2024/01/10 09:18:56;;;;;;;29.65;16.88;;;;;;;;;;5043095;28;20218;-77
2024/01/10 09:21:24;;;;;;;23.17;15.40;;;;;;;;;;5043307;28;20241;-78
2024/01/10 09:23:51;;;;;;;33.30;19.70;;;;;;;;;;5046271;28;20293;-80
2024/01/10 09:26:19;;;;;;;29.95;17.52;;;;;;;;;;5044423;28;20212;-77
2024/01/10 09:28:46;;;;;;;30.17;17.20;;;;;;;;;;5044346;28;20226;-78
2024/01/10 09:31:13;;;;;;;29.35;16.20;;;;;;;;;;5044462;28;20228;-77
2024/01/10 09:33:41;;;;;;;31.02;19.10;;;;;;;;;;5044249;28;20305;-78
2024/01/10 09:36:10;;;;;;;26.45;17.38;;;;;;;;;;5044531;28;20203;-77
2024/01/10 09:38:38;;;;;;;30.25;18.13;;;;;;;;;;5044281;28;20226;-79
2024/01/10 09:41:06;;;;;;;20.88;14.75;;;;;;;;;;5046498;28;20222;-78
2024/01/10 09:43:34;;;;;;;29.98;18.20;;;;;;;;;;5041238;28;20217;-77
2024/01/10 09:46:03;;;;;;;28.27;17.50;;;;;;;;;;5043059;28;20289;-78
2024/01/10 09:48:31;;;;;;;30.15;16.83;;;;;;;;;;5042181;28;20226;-78
2024/01/10 09:50:59;;;;;;;23.23;14.90;;;;;;;;;;5042831;28;20206;-79
2024/01/10 09:53:30;;;;;;;24.00;16.92;;;;;;;;;;5051792;23;20246;-92
2024/01/10 09:55:59;;;;;;;28.88;18.15;;;;;;;;;;5016434;28;20215;-88
2024/01/10 09:58:27;;;;;;;30.58;18.20;;;;;;;;;;5035949;28;20202;-89
2024/01/10 10:00:55;;;;;;;23.98;15.30;;;;;;;;;;5034878;28;20241;-90
2024/01/10 10:03:23;;;;;;;22.30;15.43;;;;;;;;;;5041197;28;20232;-90
2024/01/10 10:05:51;;;;;;;18.50;12.05;;;;;;;;;;5158470;22;20216;-90
2024/01/10 10:08:22;;;;;;;23.67;15.23;;;;;;;;;;5038798;28;20202;-92
2024/01/10 10:10:52;;;;;;;18.80;12.75;;;;;;;;;;5038859;28;20214;-92
2024/01/10 10:13:29;;;;;;;25.13;15.15;;;;;;;;;;5036930;28;20232;-92
2024/01/10 10:16:01;;;;;;;24.58;15.20;;;;;;;;;;5043483;28;20285;-93
2024/01/10 10:18:29;;;;;;;23.20;15.15;;;;;;;;;;5059067;28;20205;-91
2024/01/10 10:21:10;;;;;;;25.42;15.07;;;;;;;;;;5057035;28;20194;-91
2024/01/10 10:23:38;;;;;;;19.23;14.77;;;;;;;;;;5037888;28;20211;-92
2024/01/10 10:26:20;;;;;;;22.08;14.18;;;;;;;;;;5038217;28;20211;-93
2024/01/10 10:28:48;;;;;;;21.58;13.18;;;;;;;;;;5038935;28;20214;-92
2024/01/10 10:31:20;;;;;;;22.33;14.75;;;;;;;;;;5038724;28;20237;-94
2024/01/10 10:33:50;;;;;;;26.30;14.77;;;;;;;;;;5038007;28;20195;-92
2024/01/10 10:36:18;;;;;;;23.75;15.50;;;;;;;;;;5029615;28;20300;-91
2024/01/10 10:38:48;;;;;;;14.13;10.48;;;;;;;;;;5058198;28;20198;-92
2024/01/10 10:41:17;;;;;;;24.25;14.23;;;;;;;;;;5057218;28;20278;-93
2024/01/10 10:43:45;;;;;;;18.75;12.80;;;;;;;;;;5059183;28;20451;-93
2024/01/10 10:46:14;;;;;;;16.73;11.23;;;;;;;;;;5065941;28;20229;-94
2024/01/10 10:48:42;;;;;;;15.80;10.80;;;;;;;;;;5050896;28;20305;-95
2024/01/10 10:51:13;;;;;;;18.17;11.27;;;;;;;;;;5055701;28;20234;-94
2024/01/10 10:53:41;;;;;;;18.65;12.55;;;;;;;;;;5045613;28;20195;-92
2024/01/10 10:56:09;;;;;;;14.63;9.60;;;;;;;;;;5038528;28;20207;-93
2024/01/10 10:58:43;;;;;;;14.75;11.27;;;;;;;;;;5038489;28;20183;-93
2024/01/10 11:01:15;;;;;;;18.27;12.57;;;;;;;;;;5038675;28;20266;-95
2024/01/10 11:03:44;;;;;;;16.52;11.15;;;;;;;;;;5082263;23;20234;-94
2024/01/10 11:06:12;;;;;;;21.98;14.88;;;;;;;;;;5077829;28;20256;-93
2024/01/10 11:08:45;;;;;;;19.42;13.52;;;;;;;;;;5078143;28;20174;-94
2024/01/10 11:11:26;;;;;;;14.82;10.85;;;;;;;;;;5078037;28;20209;-93
2024/01/10 11:23:45;;;;;;;32.92;12.35;;;;;;;;;;6010883;23;20262;-74
2024/01/10 11:26:13;;;;;;;14.40;10.05;;;;;;;;;;4987803;28;20211;-74
2024/01/10 11:28:41;;;;;;;22.05;11.57;;;;;;;;;;4987543;28;20215;-75
2024/01/10 11:31:10;;;;;;;21.00;13.07;;;;;;;;;;4985817;28;20677;-73
2024/01/10 11:33:41;;;;;;;17.95;12.15;;;;;;;;;;4989520;28;20725;-74
2024/01/10 11:36:15;;;;;;;15.75;10.55;;;;;;;;;;4989728;28;20214;-75
2024/01/10 11:38:59;;;;;;;19.42;10.40;;;;;;;;;;4991754;28;20234;-80
2024/01/10 11:41:28;;;;;;;14.07;9.23;;;;;;;;;;4994395;28;20663;-80
2024/01/10 11:44:29;;;;;;;17.73;12.52;;;;;;;;;;4993638;28;20228;-80
2024/01/10 11:46:59;;;;;;;18.52;11.95;;;;;;;;;;4976419;28;20209;-80
2024/01/10 11:49:27;;;;;;;16.52;12.63;;;;;;;;;;4993594;28;20204;-79
2024/01/10 11:51:56;;;;;;;15.60;10.18;;;;;;;;;;4994173;28;20206;-80
2024/01/10 11:54:46;;;;;;;17.35;12.70;;;;;;;;;;4993318;28;20230;-79
2024/01/10 11:57:19;;;;;;;12.45;10.13;;;;;;;;;;4993581;28;20204;-79
2024/01/10 11:59:47;;;;;;;14.95;12.00;;;;;;;;;;4993394;28;20291;-79
2024/01/10 12:02:16;;;;;;;15.15;10.35;;;;;;;;;;4993969;28;20215;-80
2024/01/10 12:04:43;;;;;;;15.18;9.98;;;;;;;;;;4994269;28;20658;-80
2024/01/10 12:07:11;;;;;;;18.20;12.35;;;;;;;;;;4993756;28;20298;-80
2024/01/10 12:09:38;;;;;;;22.73;14.98;;;;;;;;;;4993277;28;20200;-80
2024/01/10 12:12:08;;;;;;;18.02;12.23;;;;;;;;;;4992950;28;20203;-80
2024/01/10 12:14:36;;;;;;;16.85;11.75;;;;;;;;;;4987331;28;20231;-81
2024/01/10 12:17:04;;;;;;;20.52;12.85;;;;;;;;;;4993315;28;20207;-80
2024/01/10 12:19:32;;;;;;;19.60;13.95;;;;;;;;;;4992595;28;20282;-79
2024/01/10 12:22:00;;;;;;;18.55;12.93;;;;;;;;;;4994679;28;20298;-80
2024/01/10 12:24:30;;;;;;;21.40;13.15;;;;;;;;;;4993252;28;20244;-80
2024/01/10 12:26:57;;;;;;;19.65;13.50;;;;;;;;;;4991842;28;20271;-79
2024/01/10 12:29:27;;;;;;;21.80;15.10;;;;;;;;;;4990432;28;20561;-81
2024/01/10 12:31:55;;;;;;;18.02;12.27;;;;;;;;;;4978198;28;20276;-80
2024/01/10 12:34:22;;;;;;;20.48;13.10;;;;;;;;;;4982446;28;20310;-81
2024/01/10 12:36:50;;;;;;;21.48;14.50;;;;;;;;;;4980208;28;20204;-80
2024/01/10 12:39:18;;;;;;;20.27;14.40;;;;;;;;;;4979896;28;20260;-80
2024/01/10 12:41:45;;;;;;;16.55;11.20;;;;;;;;;;4980292;28;20201;-80
2024/01/10 12:44:13;;;;;;;16.98;12.48;;;;;;;;;;4980510;28;20229;-81
2024/01/10 12:46:53;;;;;;;17.05;12.43;;;;;;;;;;4981498;28;20204;-81
2024/01/10 12:49:20;;;;;;;21.35;13.88;;;;;;;;;;4980343;28;20196;-81
2024/01/10 12:51:48;;;;;;;19.25;13.25;;;;;;;;;;4979719;28;20643;-81
2024/01/10 12:54:16;;;;;;;19.67;12.70;;;;;;;;;;4980151;28;20283;-81
2024/01/10 12:56:45;;;;;;;19.50;12.05;;;;;;;;;;4980189;28;20212;-80
2024/01/10 12:59:13;;;;;;;11.73;9.85;;;;;;;;;;4981542;28;20228;-79
2024/01/10 13:01:41;;;;;;;14.65;9.95;;;;;;;;;;4979918;28;20683;-81
2024/01/10 13:04:12;;;;;;;19.00;11.85;;;;;;;;;;4980905;28;20256;-79
2024/01/10 13:06:41;;;;;;;19.40;12.40;;;;;;;;;;4974541;28;20211;-79
2024/01/10 13:09:09;;;;;;;16.27;11.82;;;;;;;;;;4979776;28;20678;-80
2024/01/10 13:11:36;;;;;;;16.35;11.00;;;;;;;;;;4976363;28;20196;-80
2024/01/10 13:14:04;;;;;;;17.42;11.55;;;;;;;;;;4979377;28;20228;-79
2024/01/10 13:16:31;;;;;;;17.90;12.27;;;;;;;;;;4978468;28;20286;-81
2024/01/10 13:18:59;;;;;;;17.83;12.60;;;;;;;;;;4977912;28;20209;-76
2024/01/10 13:21:28;;;;;;;17.27;9.95;;;;;;;;;;4975229;28;20727;-76
2024/01/10 13:23:55;;;;;;;18.70;12.30;;;;;;;;;;4974276;28;20236;-77
2024/01/10 13:26:23;;;;;;;17.23;12.13;;;;;;;;;;4975125;28;20212;-77
2024/01/10 13:28:51;;;;;;;13.43;9.50;;;;;;;;;;4974486;28;20205;-77
2024/01/10 13:31:19;;;;;;;17.38;12.00;;;;;;;;;;4974929;28;20255;-77
2024/01/10 13:33:47;;;;;;;18.45;13.13;;;;;;;;;;4974523;28;20255;-80
2024/01/10 13:36:14;;;;;;;17.10;11.18;;;;;;;;;;4979102;28;20294;-81
2024/01/10 13:38:43;;;;;;;18.50;11.25;;;;;;;;;;4978608;28;20689;-81
2024/01/10 13:41:10;;;;;;;13.20;9.07;;;;;;;;;;4980178;28;20224;-81
2024/01/10 13:43:40;;;;;;;16.95;12.82;;;;;;;;;;4978264;28;20234;-80
2024/01/10 13:46:07;;;;;;;17.67;12.27;;;;;;;;;;4978616;28;20232;-82
2024/01/10 13:48:34;;;;;;;15.50;10.60;;;;;;;;;;4978750;28;20667;-80
2024/01/10 13:51:02;;;;;;;13.80;10.93;;;;;;;;;;4979259;28;20204;-82
2024/01/10 13:53:29;;;;;;;17.35;11.15;;;;;;;;;;4980099;28;20212;-79
2024/01/10 13:55:58;;;;;;;14.95;10.13;;;;;;;;;;4979215;28;20205;-81
2024/01/10 13:58:26;;;;;;;16.33;9.52;;;;;;;;;;4978656;28;20584;-81
2024/01/10 14:00:53;;;;;;;15.98;11.32;;;;;;;;;;4981644;28;20216;-81
2024/01/10 14:03:21;;;;;;;16.70;11.98;;;;;;;;;;4977246;28;20210;-80
2024/01/10 14:05:48;;;;;;;19.10;12.38;;;;;;;;;;4979247;28;20211;-80
2024/01/10 14:08:16;;;;;;;15.85;11.73;;;;;;;;;;4978272;28;20200;-81
2024/01/10 14:10:44;;;;;;;16.08;10.55;;;;;;;;;;4978351;28;20200;-80
2024/01/10 14:13:12;;;;;;;10.73;9.38;;;;;;;;;;4979930;28;20651;-81
2024/01/10 14:15:41;;;;;;;15.30;10.52;;;;;;;;;;4977091;28;20226;-81
2024/01/10 14:18:09;;;;;;;19.48;11.73;;;;;;;;;;4977733;28;20208;-80
2024/01/10 14:20:36;;;;;;;16.05;11.23;;;;;;;;;;4976505;28;20220;-80
2024/01/10 14:23:05;;;;;;;15.93;12.18;;;;;;;;;;4977679;28;20441;-81
2024/01/10 14:25:34;;;;;;;20.30;11.48;;;;;;;;;;4972265;28;20234;-80
2024/01/10 14:28:03;;;;;;;12.27;10.07;;;;;;;;;;4972881;28;20212;-79
2024/01/10 14:30:32;;;;;;;19.25;13.38;;;;;;;;;;4974449;28;20204;-80
2024/01/10 14:33:00;;;;;;;21.17;11.43;;;;;;;;;;4974836;28;20652;-80
2024/01/10 14:35:27;;;;;;;19.23;12.43;;;;;;;;;;4976976;28;20232;-80